Time;durP1;ratioP1;P1;durP2;ratioP2;P2;SDS_P1;SDS_P2;PMS_P1;PMS_P2;Temp;Humidity;BMP_temperature;BMP_pressure;BME280_temperature;BME280_humidity;BME280_pressure;Samples;Min_cycle;Max_cycle;Signal;HPM_P1;HPM_P2
2022/01/02 00:01:35;;;;;;;124.83;27.20;;;3.80;95.20;;;;;;5055266;28;20227;-71
2022/01/02 00:04:04;;;;;;;99.77;25.90;;;3.80;95.20;;;;;;5053584;28;20212;-71
2022/01/02 00:06:33;;;;;;;151.57;25.43;;;3.80;95.20;;;;;;5058576;28;20199;-71
2022/01/02 00:09:04;;;;;;;77.13;25.20;;;3.80;95.20;;;;;;5070778;28;20206;-71
2022/01/02 00:11:32;;;;;;;90.93;23.97;;;3.80;95.30;;;;;;5071102;28;20225;-72
2022/01/02 00:14:07;;;;;;;88.43;25.43;;;3.80;95.40;;;;;;5052429;28;20218;-71
2022/01/02 00:16:38;;;;;;;110.80;25.50;;;3.90;95.50;;;;;;5065869;28;20270;-71
2022/01/02 00:19:19;;;;;;;131.43;25.57;;;3.90;95.50;;;;;;5053035;28;20232;-71
2022/01/02 00:21:47;;;;;;;77.80;23.63;;;3.90;95.50;;;;;;5054176;28;20234;-71
2022/01/02 00:24:19;;;;;;;77.03;23.13;;;3.90;95.50;;;;;;5052659;28;20211;-71
2022/01/02 00:26:50;;;;;;;100.93;26.40;;;3.90;95.50;;;;;;5054982;28;20214;-71
2022/01/02 00:29:19;;;;;;;95.17;25.63;;;3.90;95.50;;;;;;5067305;28;20557;-71
2022/01/02 00:31:53;;;;;;;78.87;24.90;;;3.90;95.40;;;;;;5056631;28;20220;-71
2022/01/02 00:34:22;;;;;;;75.37;20.53;;;3.90;95.40;;;;;;5072009;28;20658;-71
2022/01/02 00:36:49;;;;;;;109.03;25.00;;;4.00;95.40;;;;;;5072476;28;20306;-71
2022/01/02 00:39:17;;;;;;;89.97;21.00;;;4.00;95.30;;;;;;5054705;28;20223;-71
2022/01/02 00:41:54;;;;;;;75.70;20.27;;;4.00;95.30;;;;;;5058898;28;20218;-71
2022/01/02 00:44:28;;;;;;;74.77;21.67;;;4.00;95.30;;;;;;5053657;28;20245;-71
2022/01/02 00:47:06;;;;;;;58.43;19.57;;;4.00;95.20;;;;;;5053399;28;20216;-71
2022/01/02 00:49:39;;;;;;;47.87;19.90;;;4.00;95.20;;;;;;5061173;28;20207;-71
2022/01/02 00:52:13;;;;;;;69.47;19.20;;;4.00;95.20;;;;;;5060242;28;20299;-71
2022/01/02 00:54:44;;;;;;;65.43;19.30;;;4.00;95.10;;;;;;5061046;28;20211;-71
2022/01/02 00:57:18;;;;;;;102.60;24.13;;;4.00;95.10;;;;;;5067755;28;20260;-71
2022/01/02 00:59:58;;;;;;;83.57;23.60;;;4.00;95.00;;;;;;5054359;28;20524;-71
2022/01/02 01:02:33;;;;;;;68.10;21.03;;;4.00;95.00;;;;;;5050465;28;20310;-71
2022/01/02 01:05:05;;;;;;;32.50;16.20;;;3.90;95.00;;;;;;5070968;28;20305;-71
2022/01/02 01:07:34;;;;;;;61.60;18.87;;;3.90;94.90;;;;;;5066445;28;20256;-71
2022/01/02 01:10:03;;;;;;;99.23;19.57;;;3.80;94.30;;;;;;5082339;28;20373;-71
2022/01/02 01:12:30;;;;;;;88.90;20.33;;;3.80;94.50;;;;;;5064617;28;20657;-71
2022/01/02 01:14:58;;;;;;;83.77;20.43;;;3.70;94.70;;;;;;5064583;28;20295;-71
2022/01/02 01:17:26;;;;;;;133.27;23.47;;;3.80;94.90;;;;;;5062971;28;20657;-71
2022/01/02 01:19:53;;;;;;;141.73;20.33;;;3.70;95.10;;;;;;5063834;28;20218;-71
2022/01/02 01:22:22;;;;;;;80.17;19.50;;;3.80;95.20;;;;;;5065159;28;20231;-71
2022/01/02 01:24:49;;;;;;;74.27;20.70;;;3.80;95.20;;;;;;5065891;28;20249;-72
2022/01/02 01:27:17;;;;;;;80.97;18.70;;;3.80;95.20;;;;;;5061382;28;20260;-71
2022/01/02 01:29:44;;;;;;;63.00;18.33;;;3.80;95.20;;;;;;5047300;28;20604;-71
2022/01/02 01:32:11;;;;;;;81.90;17.23;;;3.80;95.20;;;;;;5065532;28;20248;-71
2022/01/02 01:34:38;;;;;;;66.17;17.80;;;3.80;95.20;;;;;;5061106;28;20255;-71
2022/01/02 01:37:06;;;;;;;54.60;20.17;;;3.80;95.10;;;;;;5061461;28;20228;-71
2022/01/02 01:39:36;;;;;;;61.73;18.77;;;3.80;95.10;;;;;;5065986;28;20233;-71
2022/01/02 01:42:10;;;;;;;85.97;20.40;;;3.80;95.10;;;;;;5067045;28;20583;-71
2022/01/02 01:47:14;;;;;;;60.30;20.17;;;3.80;95.10;;;;;;5059318;28;20222;-70
2022/01/02 01:49:41;;;;;;;76.43;20.63;;;3.80;95.00;;;;;;5063631;28;20213;-70
2022/01/02 01:52:09;;;;;;;55.63;17.93;;;3.80;95.10;;;;;;5068845;28;20728;-70
2022/01/02 01:54:36;;;;;;;74.90;17.27;;;3.80;95.20;;;;;;5065096;28;20195;-70
2022/01/02 01:57:03;;;;;;;91.37;19.13;;;3.90;95.20;;;;;;5052877;28;20247;-70
2022/01/02 01:59:33;;;;;;;65.27;17.17;;;3.90;95.20;;;;;;5041608;28;20561;-70
2022/01/02 02:02:01;;;;;;;45.30;17.10;;;3.90;95.10;;;;;;5042474;28;20213;-70
2022/01/02 02:04:30;;;;;;;44.87;15.03;;;3.90;95.10;;;;;;5051027;28;20209;-71
2022/01/02 02:06:59;;;;;;;66.27;14.23;;;3.90;95.10;;;;;;5071047;28;20211;-71
2022/01/02 02:09:34;;;;;;;48.03;15.57;;;3.90;95.00;;;;;;5069936;28;20224;-71
2022/01/02 02:12:01;;;;;;;52.50;15.97;;;3.80;95.00;;;;;;5054688;28;20211;-71
2022/01/02 02:14:36;;;;;;;36.57;15.50;;;3.80;95.00;;;;;;5066705;28;20212;-71
2022/01/02 02:17:03;;;;;;;79.93;14.87;;;3.80;94.90;;;;;;5053721;28;20214;-71
2022/01/02 02:19:30;;;;;;;60.23;16.60;;;3.80;94.90;;;;;;5055497;28;20251;-70
2022/01/02 02:21:59;;;;;;;36.93;13.87;;;3.80;94.90;;;;;;5057057;28;20211;-71
2022/01/02 02:24:26;;;;;;;61.93;14.37;;;3.80;94.90;;;;;;5071729;28;20581;-71
2022/01/02 02:26:54;;;;;;;58.67;14.60;;;3.80;94.90;;;;;;5054259;28;20230;-71
2022/01/02 02:29:21;;;;;;;49.90;14.80;;;3.80;94.90;;;;;;5057228;28;20218;-71
2022/01/02 02:31:50;;;;;;;42.23;12.30;;;3.80;94.90;;;;;;5057489;28;20223;-71
2022/01/02 02:34:17;;;;;;;39.30;13.40;;;3.80;94.90;;;;;;5058680;28;20217;-71
2022/01/02 02:36:44;;;;;;;38.83;13.07;;;3.80;94.90;;;;;;5058481;28;20245;-71
2022/01/02 02:39:12;;;;;;;26.80;13.47;;;3.80;94.90;;;;;;5058589;28;20240;-71
2022/01/02 02:41:41;;;;;;;38.00;12.20;;;3.80;94.90;;;;;;5061254;28;20208;-71
2022/01/02 02:44:19;;;;;;;49.20;13.27;;;3.80;95.00;;;;;;5071564;28;20207;-71
2022/01/02 02:49:38;;;;;;;77.47;14.23;;;3.70;94.80;;;;;;5062195;28;20219;-71
2022/01/02 02:52:15;;;;;;;41.63;15.90;;;3.70;94.90;;;;;;5062910;28;20219;-74
2022/01/02 02:54:43;;;;;;;43.00;15.57;;;3.70;94.80;;;;;;5064624;28;20203;-71
2022/01/02 02:57:13;;;;;;;33.60;12.83;;;3.70;95.10;;;;;;5061723;28;20216;-71
2022/01/02 02:59:41;;;;;;;69.07;15.23;;;3.70;94.90;;;;;;5066107;28;20230;-71
2022/01/02 03:02:09;;;;;;;58.67;16.57;;;3.70;94.90;;;;;;5065519;28;20564;-71
2022/01/02 03:04:41;;;;;;;52.33;13.63;;;3.70;94.90;;;;;;5062820;28;20254;-71
2022/01/02 03:07:08;;;;;;;47.93;13.50;;;3.70;94.80;;;;;;5062787;28;20209;-71
2022/01/02 03:09:41;;;;;;;40.37;14.77;;;3.70;94.80;;;;;;5065104;28;20211;-71
2022/01/02 03:12:11;;;;;;;48.37;14.37;;;3.70;94.80;;;;;;5043598;28;20214;-71
2022/01/02 03:14:42;;;;;;;39.20;14.00;;;3.70;94.80;;;;;;5063974;28;20218;-71
2022/01/02 03:17:10;;;;;;;28.67;12.20;;;3.70;94.60;;;;;;5062833;28;20343;-71
2022/01/02 03:19:37;;;;;;;39.17;14.30;;;3.60;94.30;;;;;;5062094;28;20237;-71
2022/01/02 03:22:08;;;;;;;45.47;17.93;;;3.50;94.20;;;;;;5061606;28;20638;-71
2022/01/02 03:24:35;;;;;;;36.40;13.50;;;3.50;94.30;;;;;;5061906;28;20299;-71
2022/01/02 03:27:03;;;;;;;90.97;14.47;;;3.40;94.30;;;;;;5062563;28;20690;-71
2022/01/02 03:29:30;;;;;;;29.47;14.67;;;3.30;94.50;;;;;;5063865;28;20199;-71
2022/01/02 03:31:59;;;;;;;48.57;14.47;;;3.20;94.70;;;;;;5061987;28;20304;-71
2022/01/02 03:34:26;;;;;;;61.73;17.00;;;3.20;94.70;;;;;;5059875;28;20252;-70
2022/01/02 03:36:53;;;;;;;57.00;15.40;;;3.20;94.90;;;;;;5059903;28;20217;-70
2022/01/02 03:39:20;;;;;;;57.97;16.30;;;3.10;95.00;;;;;;5059278;28;20242;-71
2022/01/02 03:41:49;;;;;;;50.93;15.80;;;3.10;95.00;;;;;;5052227;28;20281;-71
2022/01/02 03:44:17;;;;;;;43.43;13.50;;;3.10;95.00;;;;;;5057080;28;20217;-71
2022/01/02 03:46:44;;;;;;;78.13;16.77;;;3.10;95.10;;;;;;5043998;28;20213;-71
2022/01/02 03:49:13;;;;;;;49.83;14.33;;;3.10;95.30;;;;;;5057497;28;20231;-71
2022/01/02 03:51:41;;;;;;;105.27;16.03;;;3.10;95.30;;;;;;5041026;28;20261;-71
2022/01/02 03:54:09;;;;;;;61.33;15.40;;;3.10;95.40;;;;;;5051341;28;20302;-71
2022/01/02 03:56:36;;;;;;;42.43;12.50;;;3.10;95.50;;;;;;5055066;28;20230;-70
2022/01/02 03:59:03;;;;;;;39.20;14.30;;;3.20;95.50;;;;;;5064750;28;20260;-70
2022/01/02 04:01:31;;;;;;;33.70;12.80;;;3.20;95.30;;;;;;5068179;28;20199;-70
2022/01/02 04:03:58;;;;;;;91.00;16.00;;;3.20;95.30;;;;;;5054448;28;20202;-70
2022/01/02 04:06:25;;;;;;;42.23;15.00;;;3.20;95.40;;;;;;5071558;28;20209;-70
2022/01/02 04:08:52;;;;;;;83.20;16.57;;;3.20;95.40;;;;;;5072068;28;20301;-70
2022/01/02 04:11:19;;;;;;;31.80;14.13;;;3.20;95.50;;;;;;5071385;28;20244;-70
2022/01/02 04:13:46;;;;;;;68.63;16.60;;;3.20;95.50;;;;;;5058072;28;20270;-71
2022/01/02 04:16:13;;;;;;;48.47;15.53;;;3.30;95.60;;;;;;5056194;28;20306;-71
2022/01/02 04:18:41;;;;;;;59.10;18.10;;;3.30;95.60;;;;;;5056386;28;20282;-71
2022/01/02 04:21:08;;;;;;;95.67;18.00;;;3.30;95.60;;;;;;5059499;28;20255;-71
2022/01/02 04:23:37;;;;;;;66.30;17.03;;;3.40;95.70;;;;;;5051385;28;20211;-71
2022/01/02 04:26:05;;;;;;;110.30;16.63;;;3.40;95.50;;;;;;5075175;28;20226;-71
2022/01/02 04:28:32;;;;;;;78.20;17.07;;;3.40;95.40;;;;;;5074853;28;20202;-70
2022/01/02 04:31:00;;;;;;;58.30;16.27;;;3.40;95.40;;;;;;5073953;28;20234;-70
2022/01/02 04:33:29;;;;;;;110.33;16.93;;;3.40;95.50;;;;;;5069932;28;20638;-70
2022/01/02 04:35:56;;;;;;;33.97;15.37;;;3.40;95.60;;;;;;5073337;28;20214;-70
2022/01/02 04:38:23;;;;;;;53.53;15.67;;;3.50;95.60;;;;;;5073788;28;20203;-70
2022/01/02 04:40:50;;;;;;;44.37;15.73;;;3.50;95.60;;;;;;5072397;28;20251;-70
2022/01/02 04:43:18;;;;;;;35.23;15.43;;;3.50;95.60;;;;;;5055515;28;20211;-71
2022/01/02 04:45:45;;;;;;;65.93;16.87;;;3.50;95.60;;;;;;5071549;28;20206;-71
2022/01/02 04:48:13;;;;;;;62.13;18.10;;;3.60;95.60;;;;;;5071828;28;20256;-71
2022/01/02 04:50:40;;;;;;;54.40;16.70;;;3.60;95.60;;;;;;5070598;28;20646;-71
2022/01/02 04:53:07;;;;;;;67.70;16.60;;;3.60;95.60;;;;;;5070240;28;20220;-71
2022/01/02 04:55:34;;;;;;;57.47;15.53;;;3.70;95.80;;;;;;5069842;28;20198;-71
2022/01/02 04:58:02;;;;;;;70.93;17.30;;;3.70;95.50;;;;;;5052754;28;20665;-71
2022/01/02 05:00:30;;;;;;;78.07;18.10;;;3.70;95.40;;;;;;5065849;28;20672;-71
2022/01/02 05:02:57;;;;;;;84.00;15.47;;;3.70;95.40;;;;;;5060719;28;20207;-71
2022/01/02 05:05:25;;;;;;;67.10;16.77;;;3.70;95.30;;;;;;5060455;28;20218;-71
2022/01/02 05:07:52;;;;;;;63.40;15.10;;;3.70;95.20;;;;;;5060686;28;20211;-71
2022/01/02 05:10:19;;;;;;;50.10;16.87;;;3.70;95.30;;;;;;5044602;28;20222;-71
2022/01/02 05:12:47;;;;;;;61.50;14.73;;;3.70;95.30;;;;;;5062867;28;20229;-71
2022/01/02 05:15:17;;;;;;;70.73;16.40;;;3.70;95.30;;;;;;5067053;28;20206;-71
2022/01/02 05:17:45;;;;;;;60.97;15.13;;;3.70;95.30;;;;;;5066479;28;20208;-71
2022/01/02 05:20:13;;;;;;;68.37;16.73;;;3.70;95.20;;;;;;5070236;28;20282;-71
2022/01/02 05:22:40;;;;;;;64.77;14.40;;;3.70;95.30;;;;;;5062673;28;20226;-71
2022/01/02 05:25:08;;;;;;;34.57;13.13;;;3.70;95.40;;;;;;5063121;28;20232;-71
2022/01/02 05:27:35;;;;;;;44.40;12.77;;;3.70;95.30;;;;;;5053414;28;20268;-71
2022/01/02 05:30:04;;;;;;;62.97;14.43;;;3.70;95.30;;;;;;5064184;28;20216;-71
2022/01/02 05:32:31;;;;;;;43.53;14.60;;;3.70;95.30;;;;;;5065673;28;20204;-71
2022/01/02 05:34:59;;;;;;;64.07;13.03;;;3.70;95.20;;;;;;5054535;28;20584;-71
2022/01/02 05:37:26;;;;;;;73.37;14.33;;;3.70;95.10;;;;;;5063845;28;20208;-71
2022/01/02 05:39:54;;;;;;;39.67;12.90;;;3.70;95.10;;;;;;5059872;28;20563;-71
2022/01/02 05:42:21;;;;;;;42.33;12.70;;;3.70;95.10;;;;;;5044431;28;20208;-71
2022/01/02 05:44:48;;;;;;;56.50;13.50;;;3.70;95.10;;;;;;5060871;28;20356;-71
2022/01/02 05:47:15;;;;;;;57.40;13.23;;;3.60;95.10;;;;;;5060115;28;20206;-71
2022/01/02 05:49:42;;;;;;;41.23;12.20;;;3.70;95.00;;;;;;5062352;28;20237;-71
2022/01/02 05:52:10;;;;;;;44.83;13.00;;;3.60;95.00;;;;;;5059677;28;20565;-71
2022/01/02 05:54:37;;;;;;;41.30;11.30;;;3.60;95.00;;;;;;5062331;28;20218;-71
2022/01/02 05:57:04;;;;;;;54.20;11.87;;;3.60;94.90;;;;;;5059049;28;20620;-71
2022/01/02 05:59:33;;;;;;;47.40;12.40;;;3.60;94.90;;;;;;5067691;28;20224;-71
2022/01/02 06:02:00;;;;;;;61.63;12.27;;;3.50;94.80;;;;;;5068475;28;20211;-71
2022/01/02 06:04:28;;;;;;;52.33;12.87;;;3.50;94.70;;;;;;5049430;28;20311;-71
2022/01/02 06:06:55;;;;;;;58.67;13.80;;;3.50;94.80;;;;;;5056173;28;20260;-71
2022/01/02 06:09:24;;;;;;;40.27;11.83;;;3.50;94.80;;;;;;5056135;28;20302;-71
2022/01/02 06:11:52;;;;;;;28.73;10.97;;;3.50;94.70;;;;;;5055869;28;20695;-70
2022/01/02 06:14:20;;;;;;;37.47;10.77;;;3.40;94.70;;;;;;5038989;28;20659;-71
2022/01/02 06:16:47;;;;;;;39.07;11.17;;;3.40;94.60;;;;;;5055168;28;20228;-70
2022/01/02 06:19:15;;;;;;;38.87;10.90;;;3.40;94.60;;;;;;5067542;28;20233;-70
2022/01/02 06:21:42;;;;;;;63.47;13.40;;;3.30;94.60;;;;;;5056183;28;20202;-70
2022/01/02 06:24:10;;;;;;;54.47;12.40;;;3.30;94.60;;;;;;5037205;28;20215;-71
2022/01/02 06:26:37;;;;;;;47.40;12.23;;;3.30;94.70;;;;;;5053287;28;20550;-71
2022/01/02 06:29:04;;;;;;;30.43;11.20;;;3.30;94.70;;;;;;5053100;28;20787;-71
2022/01/02 06:31:32;;;;;;;45.07;13.80;;;3.30;94.70;;;;;;5052951;28;20208;-70
2022/01/02 06:34:00;;;;;;;38.87;12.33;;;3.30;94.70;;;;;;5053271;28;20213;-70
2022/01/02 06:36:28;;;;;;;62.40;13.23;;;3.30;94.70;;;;;;5053631;28;20232;-70
2022/01/02 06:38:55;;;;;;;62.17;12.30;;;3.30;94.80;;;;;;5053897;28;20222;-70
2022/01/02 06:41:22;;;;;;;51.43;12.00;;;3.30;94.70;;;;;;5054105;28;20218;-70
2022/01/02 06:43:52;;;;;;;51.13;11.30;;;3.30;94.80;;;;;;5056993;28;20206;-70
2022/01/02 06:46:22;;;;;;;83.37;13.73;;;3.20;94.70;;;;;;5058465;28;20241;-70
2022/01/02 06:48:49;;;;;;;55.20;10.80;;;3.20;94.70;;;;;;5055307;28;20279;-70
2022/01/02 06:51:36;;;;;;;47.83;10.33;;;3.20;94.80;;;;;;5055634;28;20270;-70
2022/01/02 06:54:04;;;;;;;70.47;10.87;;;3.20;94.80;;;;;;5055847;28;20225;-70
2022/01/02 06:56:31;;;;;;;38.23;11.73;;;3.20;94.90;;;;;;5056281;28;20215;-70
2022/01/02 06:58:59;;;;;;;29.27;11.23;;;3.20;94.80;;;;;;5040198;28;20604;-71
2022/01/02 07:01:26;;;;;;;39.93;10.63;;;3.30;94.80;;;;;;5057094;28;20300;-71
2022/01/02 07:03:54;;;;;;;26.57;10.80;;;3.20;94.70;;;;;;5070679;28;20313;-71
2022/01/02 07:06:21;;;;;;;46.83;14.37;;;3.20;94.70;;;;;;5066166;28;20225;-71
2022/01/02 07:08:49;;;;;;;20.37;10.60;;;3.20;94.70;;;;;;5051297;28;20217;-71
2022/01/02 07:11:17;;;;;;;49.83;10.47;;;3.20;94.60;;;;;;5058564;28;20305;-71
2022/01/02 07:13:45;;;;;;;23.47;10.17;;;3.20;94.70;;;;;;5058483;28;20211;-71
2022/01/02 07:16:12;;;;;;;27.07;9.77;;;3.20;94.70;;;;;;5060310;28;20585;-71
2022/01/02 07:18:39;;;;;;;24.33;10.97;;;3.20;94.70;;;;;;5060502;28;20218;-71
2022/01/02 07:21:06;;;;;;;15.13;10.13;;;3.20;94.70;;;;;;5063479;28;20239;-71
2022/01/02 07:23:33;;;;;;;27.03;9.47;;;3.20;94.80;;;;;;5068229;28;20287;-71
2022/01/02 07:26:00;;;;;;;20.67;11.13;;;3.20;94.80;;;;;;5062888;28;20230;-71
2022/01/02 07:28:29;;;;;;;12.57;9.10;;;3.20;94.70;;;;;;5061351;28;20194;-71
2022/01/02 07:30:56;;;;;;;34.30;9.83;;;3.20;94.70;;;;;;5045374;28;20238;-70
2022/01/02 07:33:23;;;;;;;44.47;11.97;;;3.30;94.70;;;;;;5063177;28;20206;-70
2022/01/02 07:35:50;;;;;;;39.43;10.67;;;3.20;94.50;;;;;;5062763;28;20504;-71
2022/01/02 07:38:30;;;;;;;22.40;9.50;;;3.30;94.60;;;;;;5074726;28;20309;-71
2022/01/02 07:40:57;;;;;;;38.93;10.87;;;3.20;94.60;;;;;;5064551;28;20310;-71
2022/01/02 07:43:25;;;;;;;35.47;9.90;;;3.30;94.60;;;;;;5064345;28;20225;-71
2022/01/02 07:45:52;;;;;;;21.60;10.77;;;3.30;94.60;;;;;;5050840;28;20204;-70
2022/01/02 07:48:19;;;;;;;30.10;9.87;;;3.30;94.50;;;;;;5065260;28;20194;-71
2022/01/02 07:50:46;;;;;;;37.60;11.17;;;3.30;94.50;;;;;;5065328;28;20220;-71
2022/01/02 07:53:13;;;;;;;19.47;10.37;;;3.40;94.40;;;;;;5062135;28;20290;-71
2022/01/02 07:55:40;;;;;;;30.17;11.83;;;3.40;94.40;;;;;;5063054;28;20219;-71
2022/01/02 07:58:12;;;;;;;50.90;11.47;;;3.40;94.50;;;;;;5061580;28;20218;-70
2022/01/02 08:00:39;;;;;;;19.67;9.97;;;3.40;94.50;;;;;;5061445;28;20238;-70
2022/01/02 08:03:06;;;;;;;32.40;9.93;;;3.40;94.50;;;;;;5062179;28;20241;-71
2022/01/02 08:05:38;;;;;;;29.37;9.10;;;3.50;94.40;;;;;;5060707;28;20212;-71
2022/01/02 08:08:05;;;;;;;37.60;10.70;;;3.50;94.40;;;;;;5059705;28;20219;-70
2022/01/02 08:10:33;;;;;;;19.50;10.60;;;3.50;94.40;;;;;;5059504;28;20266;-71
2022/01/02 08:13:00;;;;;;;23.10;9.57;;;3.50;94.40;;;;;;5059068;28;20208;-71
2022/01/02 08:15:27;;;;;;;22.37;9.53;;;3.60;94.40;;;;;;5060131;28;20240;-71
2022/01/02 08:17:54;;;;;;;13.13;10.00;;;3.60;94.40;;;;;;5057568;28;20256;-71
2022/01/02 08:20:22;;;;;;;11.77;9.30;;;3.60;94.30;;;;;;5059462;28;20258;-71
2022/01/02 08:22:49;;;;;;;23.30;11.53;;;3.60;94.30;;;;;;5058311;28;20204;-71
2022/01/02 08:25:16;;;;;;;29.17;15.03;;;3.70;94.40;;;;;;5057624;28;20240;-71
2022/01/02 08:27:43;;;;;;;16.30;11.40;;;3.70;94.40;;;;;;5066532;28;20203;-71
2022/01/02 08:30:10;;;;;;;32.60;12.20;;;3.80;94.50;;;;;;5071821;28;20916;-70
2022/01/02 08:32:38;;;;;;;31.60;10.97;;;3.80;94.40;;;;;;5060726;28;20203;-70
2022/01/02 08:35:07;;;;;;;47.87;11.40;;;3.90;94.50;;;;;;5073048;28;20213;-70
2022/01/02 08:37:34;;;;;;;19.93;11.50;;;3.90;94.50;;;;;;5074956;28;20659;-71
2022/01/02 08:40:01;;;;;;;23.00;11.83;;;3.90;94.50;;;;;;5075218;28;20224;-71
2022/01/02 08:42:28;;;;;;;19.00;12.03;;;4.00;94.50;;;;;;5075307;28;20204;-71
2022/01/02 08:44:55;;;;;;;30.03;12.70;;;4.00;94.50;;;;;;5070993;28;20195;-71
2022/01/02 08:47:22;;;;;;;27.60;12.80;;;4.10;94.60;;;;;;5056571;28;20203;-71
2022/01/02 08:49:49;;;;;;;30.53;14.00;;;4.10;94.50;;;;;;5067277;28;20666;-71
2022/01/02 08:52:17;;;;;;;30.70;13.10;;;4.20;94.50;;;;;;5070389;28;20214;-71
2022/01/02 08:54:45;;;;;;;40.93;15.93;;;4.20;94.50;;;;;;5058035;28;20221;-71
2022/01/02 08:57:12;;;;;;;19.37;14.27;;;4.30;94.60;;;;;;5058054;28;20290;-71
2022/01/02 08:59:39;;;;;;;24.00;13.63;;;4.40;94.60;;;;;;5055158;28;20200;-70
2022/01/02 09:02:07;;;;;;;22.23;14.13;;;4.40;94.70;;;;;;5059338;28;20204;-71
2022/01/02 09:04:34;;;;;;;26.93;14.50;;;4.50;94.70;;;;;;5058379;28;20207;-71
2022/01/02 09:07:01;;;;;;;26.60;15.37;;;4.50;94.60;;;;;;5059569;28;20208;-71
2022/01/02 09:09:29;;;;;;;20.40;13.53;;;4.60;94.60;;;;;;5064764;28;20629;-71
2022/01/02 09:11:57;;;;;;;21.67;13.40;;;4.70;94.70;;;;;;5068604;28;20213;-71
2022/01/02 09:14:28;;;;;;;22.07;13.77;;;4.70;94.80;;;;;;5062680;28;20296;-71
2022/01/02 09:16:56;;;;;;;19.97;14.87;;;4.80;94.80;;;;;;5060933;28;20200;-70
2022/01/02 09:19:23;;;;;;;19.67;14.77;;;4.90;94.80;;;;;;5064910;28;20622;-70
2022/01/02 09:21:50;;;;;;;16.77;13.30;;;5.10;94.80;;;;;;5062340;28;20339;-71
2022/01/02 09:24:17;;;;;;;20.67;15.17;;;5.20;94.70;;;;;;5060962;28;20640;-71
2022/01/02 09:26:44;;;;;;;18.73;13.80;;;5.30;94.60;;;;;;5059836;28;20240;-71
2022/01/02 09:29:11;;;;;;;23.87;15.13;;;5.30;94.50;;;;;;5062416;28;20265;-71
2022/01/02 09:31:38;;;;;;;19.83;15.30;;;5.40;94.50;;;;;;5063187;28;20595;-71
2022/01/02 09:34:07;;;;;;;19.20;14.63;;;5.50;94.50;;;;;;5061984;28;20719;-71
2022/01/02 09:36:36;;;;;;;18.20;15.07;;;5.60;94.50;;;;;;5064471;28;20569;-71
2022/01/02 09:39:04;;;;;;;20.83;14.57;;;5.70;94.50;;;;;;5062628;28;20701;-71
2022/01/02 09:41:31;;;;;;;22.13;15.90;;;5.80;94.50;;;;;;5062893;28;20224;-71
2022/01/02 09:44:00;;;;;;;20.73;16.13;;;5.90;94.50;;;;;;5062227;28;20198;-71
2022/01/02 09:46:28;;;;;;;19.73;13.80;;;6.00;94.50;;;;;;5070746;28;20692;-71
2022/01/02 09:48:55;;;;;;;14.93;12.87;;;6.10;94.40;;;;;;5064352;28;20219;-71
2022/01/02 09:51:25;;;;;;;14.67;13.10;;;6.30;94.50;;;;;;5061681;28;20230;-71
2022/01/02 09:53:56;;;;;;;16.40;13.57;;;6.40;94.50;;;;;;5063333;28;20245;-71
2022/01/02 09:56:23;;;;;;;18.70;13.93;;;6.50;94.50;;;;;;5061950;28;20210;-71
2022/01/02 09:58:51;;;;;;;15.83;12.93;;;6.60;94.80;;;;;;5063604;28;20207;-71
2022/01/02 10:01:24;;;;;;;13.90;12.00;;;6.70;94.60;;;;;;5061352;28;20318;-71
2022/01/02 10:03:55;;;;;;;15.23;13.33;;;6.80;94.60;;;;;;5068112;28;20213;-70
2022/01/02 10:06:48;;;;;;;16.97;13.20;;;6.90;94.50;;;;;;5062967;28;20207;-71
2022/01/02 10:09:30;;;;;;;16.30;12.30;;;7.00;94.50;;;;;;5058569;28;20220;-71
2022/01/02 10:12:25;;;;;;;14.50;11.70;;;7.20;94.50;;;;;;5059032;28;20209;-71
2022/01/02 10:15:12;;;;;;;15.47;11.63;;;7.40;94.50;;;;;;5057483;28;20205;-71
2022/01/02 10:18:02;;;;;;;15.77;11.97;;;7.50;94.50;;;;;;5057606;28;20220;-70
2022/01/02 10:20:29;;;;;;;15.57;12.40;;;7.60;94.40;;;;;;5058923;28;20239;-71
2022/01/02 10:23:09;;;;;;;14.87;11.20;;;7.70;94.40;;;;;;5055830;28;20312;-71
2022/01/02 10:25:37;;;;;;;17.87;12.73;;;7.80;94.40;;;;;;5060885;28;20256;-71
2022/01/02 10:28:25;;;;;;;15.90;12.37;;;7.90;94.30;;;;;;5069271;28;20202;-71
2022/01/02 10:30:57;;;;;;;15.47;11.93;;;8.10;94.30;;;;;;5071980;28;20625;-71
2022/01/02 10:33:26;;;;;;;17.67;13.70;;;8.20;94.30;;;;;;5072701;28;20416;-69
2022/01/02 10:35:57;;;;;;;20.03;14.00;;;8.30;94.20;;;;;;5072917;28;20201;-70
2022/01/02 10:38:25;;;;;;;17.90;13.20;;;8.40;94.20;;;;;;5048573;28;20225;-71
2022/01/02 10:40:52;;;;;;;17.70;13.23;;;8.50;94.20;;;;;;5072428;28;20303;-70
2022/01/02 10:43:31;;;;;;;22.03;15.23;;;8.60;94.20;;;;;;5067190;28;20677;-70
2022/01/02 10:46:03;;;;;;;19.23;13.90;;;8.70;94.20;;;;;;5065110;28;20204;-70
2022/01/02 10:48:37;;;;;;;19.43;14.47;;;8.80;94.10;;;;;;5071627;28;20206;-70
2022/01/02 10:51:14;;;;;;;22.00;15.27;;;8.90;94.10;;;;;;5066877;28;20217;-68
2022/01/02 10:53:56;;;;;;;20.53;15.43;;;9.10;94.20;;;;;;5071528;28;20197;-69
2022/01/02 10:56:30;;;;;;;18.70;13.93;;;9.20;94.20;;;;;;5066968;28;20206;-69
2022/01/02 10:59:00;;;;;;;24.33;15.73;;;9.30;94.20;;;;;;5060893;28;20289;-70
2022/01/02 11:01:28;;;;;;;20.70;15.47;;;9.40;94.20;;;;;;5055905;28;20229;-70
2022/01/02 11:03:58;;;;;;;20.83;16.43;;;9.50;94.20;;;;;;5069674;28;20196;-69
2022/01/02 11:06:33;;;;;;;21.40;15.77;;;9.70;94.20;;;;;;5024379;28;20214;-69
2022/01/02 11:09:00;;;;;;;21.57;15.80;;;9.80;94.20;;;;;;5068594;28;20206;-69
2022/01/02 11:11:27;;;;;;;25.17;15.50;;;9.90;94.20;;;;;;5068001;28;20245;-69
2022/01/02 11:13:56;;;;;;;22.10;16.10;;;10.00;94.20;;;;;;5067368;28;20595;-69
2022/01/02 11:16:24;;;;;;;20.53;15.70;;;10.20;94.20;;;;;;5064229;28;20304;-69
2022/01/02 11:18:52;;;;;;;20.40;15.47;;;10.30;94.10;;;;;;5067390;28;20201;-70
2022/01/02 11:21:22;;;;;;;23.73;16.13;;;10.40;94.10;;;;;;5065075;28;20310;-69
2022/01/02 11:24:03;;;;;;;21.83;15.67;;;10.50;94.10;;;;;;5065913;28;20214;-70
2022/01/02 11:26:55;;;;;;;21.57;15.33;;;10.60;94.10;;;;;;5064564;28;20300;-70
2022/01/02 11:29:28;;;;;;;20.80;15.80;;;10.80;94.10;;;;;;5059711;28;20205;-69
2022/01/02 11:31:55;;;;;;;21.43;16.57;;;10.90;94.00;;;;;;5066498;28;20241;-70
2022/01/02 11:34:32;;;;;;;22.40;16.33;;;11.00;93.90;;;;;;5063850;28;20204;-69
2022/01/02 11:37:11;;;;;;;22.33;15.77;;;11.10;94.00;;;;;;5069768;28;20666;-69
2022/01/02 11:40:04;;;;;;;20.10;15.70;;;11.20;94.00;;;;;;5069326;28;20555;-69
2022/01/02 11:42:34;;;;;;;19.90;15.40;;;11.30;94.00;;;;;;5059786;28;20242;-69
2022/01/02 11:45:10;;;;;;;22.30;14.63;;;11.40;93.90;;;;;;5069491;28;20214;-69
2022/01/02 11:47:46;;;;;;;20.23;15.20;;;11.40;93.70;;;;;;5061384;28;20683;-69
2022/01/02 11:50:33;;;;;;;25.60;16.10;;;11.50;93.60;;;;;;5044411;28;20224;-69
2022/01/02 11:53:34;;;;;;;17.73;14.73;;;11.60;93.60;;;;;;5060927;28;20206;-69
2022/01/02 11:56:02;;;;;;;21.20;15.30;;;11.70;93.50;;;;;;5048338;28;20223;-70
2022/01/02 11:58:39;;;;;;;17.77;15.27;;;11.80;93.40;;;;;;5063252;28;20202;-69
2022/01/02 12:01:07;;;;;;;16.17;13.90;;;11.90;93.30;;;;;;5058821;28;20617;-69
2022/01/02 12:03:40;;;;;;;21.17;15.80;;;11.90;93.00;;;;;;5058763;28;20686;-69
2022/01/02 12:06:33;;;;;;;17.73;13.23;;;12.00;93.00;;;;;;5058316;28;20199;-69
2022/01/02 12:09:03;;;;;;;18.27;12.07;;;12.10;92.90;;;;;;5057986;28;20588;-69
2022/01/02 12:11:43;;;;;;;16.70;12.63;;;12.10;92.60;;;;;;5059350;28;20226;-69
2022/01/02 12:14:19;;;;;;;17.47;13.07;;;12.20;92.70;;;;;;5065905;28;20209;-69
2022/01/02 12:16:57;;;;;;;16.33;12.33;;;12.20;92.80;;;;;;5059916;28;20208;-69
2022/01/02 12:19:26;;;;;;;15.30;12.10;;;12.40;92.80;;;;;;5065931;28;20527;-69
2022/01/02 12:22:15;;;;;;;14.00;12.43;;;12.40;92.60;;;;;;5056169;28;20310;-69
2022/01/02 12:24:44;;;;;;;11.73;10.53;;;12.50;92.60;;;;;;5058013;28;20251;-69
2022/01/02 12:27:14;;;;;;;12.50;10.70;;;12.50;92.40;;;;;;5058349;28;20545;-69
2022/01/02 12:29:41;;;;;;;12.63;10.80;;;12.50;92.00;;;;;;5059687;28;20201;-69
2022/01/02 12:32:10;;;;;;;12.60;10.67;;;12.40;91.80;;;;;;5055753;28;20218;-69
2022/01/02 12:34:40;;;;;;;14.70;12.03;;;12.30;91.80;;;;;;5067111;28;20678;-69
2022/01/02 12:37:07;;;;;;;17.57;11.63;;;12.30;91.90;;;;;;5055583;28;20210;-69
2022/01/02 12:39:40;;;;;;;17.07;12.17;;;12.20;92.00;;;;;;5072661;28;20289;-69
2022/01/02 12:42:14;;;;;;;17.00;11.87;;;12.10;92.00;;;;;;5058001;28;20241;-69
2022/01/02 12:44:43;;;;;;;13.73;10.43;;;12.10;92.20;;;;;;5075518;28;20641;-69
2022/01/02 12:47:19;;;;;;;14.23;12.03;;;12.00;92.40;;;;;;5074284;28;20206;-69
2022/01/02 12:49:47;;;;;;;16.10;12.20;;;12.10;92.50;;;;;;5055703;28;20674;-69
2022/01/02 12:52:16;;;;;;;12.90;10.83;;;12.10;92.50;;;;;;5056794;28;20204;-69
2022/01/02 12:54:46;;;;;;;15.97;11.47;;;12.10;92.30;;;;;;5040379;28;20218;-69